createdAt,value
2017-08-26T00:02:27.011Z,8.80
2017-08-26T00:04:56.098Z,8.97
2017-08-26T00:07:24.441Z,13.07
2017-08-26T00:09:52.743Z,9.47
2017-08-26T00:12:21.039Z,10.87
2017-08-26T00:14:49.382Z,8.80
2017-08-26T00:17:17.679Z,8.67
2017-08-26T00:19:45.978Z,10.10
2017-08-26T00:22:14.303Z,7.20
2017-08-26T00:24:42.633Z,10.50
2017-08-26T00:27:10.954Z,8.77
2017-08-26T00:29:39.272Z,8.50
2017-08-26T00:32:07.606Z,10.43
2017-08-26T00:34:35.906Z,8.10
2017-08-26T00:37:04.194Z,7.03
2017-08-26T00:39:32.511Z,9.33
2017-08-26T00:42:00.828Z,8.33
2017-08-26T00:44:29.144Z,9.63
2017-08-26T00:46:57.449Z,10.40
2017-08-26T00:49:25.791Z,7.93
2017-08-26T00:51:54.086Z,8.70
2017-08-26T00:54:22.379Z,10.00
2017-08-26T00:56:50.702Z,10.60
2017-08-26T00:59:19.095Z,9.17
2017-08-26T01:01:47.386Z,9.10
2017-08-26T01:04:15.679Z,7.70
2017-08-26T01:06:44.005Z,7.93
2017-08-26T01:09:12.294Z,8.17
2017-08-26T01:11:40.626Z,10.77
2017-08-26T01:14:08.991Z,10.00
2017-08-26T01:16:37.346Z,11.07
2017-08-26T01:19:05.687Z,10.80
2017-08-26T01:21:34.030Z,11.53
2017-08-26T01:24:02.397Z,10.30
2017-08-26T01:26:30.694Z,11.07
2017-08-26T01:28:59.770Z,10.03
2017-08-26T01:31:28.122Z,11.60
2017-08-26T01:33:56.428Z,10.13
2017-08-26T01:36:24.754Z,12.90
2017-08-26T01:38:53.058Z,11.20
2017-08-26T01:41:21.386Z,11.77
2017-08-26T01:43:49.695Z,11.77
2017-08-26T01:46:18.023Z,14.70
2017-08-26T01:48:46.375Z,11.33
2017-08-26T01:51:14.678Z,13.47
2017-08-26T01:53:43.037Z,12.50
2017-08-26T01:56:11.332Z,13.67
2017-08-26T01:58:40.419Z,11.63
2017-08-26T02:01:08.779Z,11.70
2017-08-26T02:03:37.123Z,10.90
2017-08-26T02:06:05.419Z,9.53
2017-08-26T02:08:33.756Z,10.43
2017-08-26T02:11:02.099Z,12.40
2017-08-26T02:13:31.191Z,11.03
2017-08-26T02:15:59.506Z,10.53
2017-08-26T02:18:27.803Z,8.67
2017-08-26T02:20:56.155Z,9.53
2017-08-26T02:23:24.459Z,10.37
2017-08-26T02:25:52.759Z,9.10
2017-08-26T02:28:21.127Z,13.37
2017-08-26T02:30:49.434Z,12.13
2017-08-26T02:33:17.775Z,9.93
2017-08-26T02:35:46.082Z,11.17
2017-08-26T02:38:14.395Z,11.87
2017-08-26T02:40:42.733Z,9.93
2017-08-26T02:43:11.032Z,10.43
2017-08-26T02:45:39.368Z,16.73
2017-08-26T02:48:07.661Z,10.20
2017-08-26T02:50:36.019Z,8.70
2017-08-26T02:53:04.315Z,9.27
2017-08-26T02:55:32.634Z,10.40
2017-08-26T02:58:00.972Z,8.33
2017-08-26T03:00:29.300Z,9.23
2017-08-26T03:02:57.586Z,9.13
2017-08-26T03:05:25.931Z,8.60
2017-08-26T03:07:54.198Z,10.20
2017-08-26T03:10:22.539Z,9.67
2017-08-26T03:12:50.851Z,7.47
2017-08-26T03:15:19.144Z,7.90
2017-08-26T03:17:47.480Z,10.07
2017-08-26T03:20:15.787Z,8.50
2017-08-26T03:22:44.083Z,9.17
2017-08-26T03:25:12.431Z,10.70
2017-08-26T03:27:41.500Z,8.87
2017-08-26T03:30:09.801Z,8.40
2017-08-26T03:32:38.131Z,9.60
2017-08-26T03:35:06.464Z,9.30
2017-08-26T03:37:34.799Z,7.70
2017-08-26T03:40:03.107Z,8.50
2017-08-26T03:42:31.401Z,8.10
2017-08-26T03:45:00.507Z,8.30
2017-08-26T03:47:28.810Z,9.03
2017-08-26T03:49:57.116Z,10.13
2017-08-26T03:52:25.445Z,9.10
2017-08-26T03:54:53.743Z,8.07
2017-08-26T03:57:22.074Z,9.90
2017-08-26T03:59:50.418Z,10.53
2017-08-26T04:02:18.763Z,11.87
2017-08-26T04:04:47.071Z,9.27
2017-08-26T04:07:15.415Z,14.03
2017-08-26T04:09:43.778Z,15.17
2017-08-26T04:12:12.125Z,11.53
2017-08-26T04:14:40.426Z,11.40
2017-08-26T04:17:08.777Z,13.87
2017-08-26T04:19:37.091Z,19.63
2017-08-26T04:22:05.430Z,15.23
2017-08-26T04:24:33.735Z,12.03
2017-08-26T04:27:02.076Z,13.77
2017-08-26T04:29:30.421Z,11.90
2017-08-26T04:31:58.726Z,15.80
2017-08-26T04:34:27.072Z,8.23
2017-08-26T04:36:55.367Z,8.50
2017-08-26T04:39:23.676Z,7.33
2017-08-26T04:41:52.043Z,8.03
2017-08-26T04:44:20.347Z,10.80
2017-08-26T04:46:48.659Z,12.53
2017-08-26T04:49:17.003Z,10.27
2017-08-26T04:51:45.341Z,10.43
2017-08-26T04:54:13.683Z,7.90
2017-08-26T04:56:41.991Z,9.43
2017-08-26T04:59:10.375Z,10.40
2017-08-26T05:01:38.672Z,8.83
2017-08-26T05:04:06.967Z,8.77
2017-08-26T05:06:35.295Z,8.27
2017-08-26T05:09:03.585Z,8.67
2017-08-26T05:11:31.878Z,9.70
2017-08-26T05:14:00.965Z,8.30
2017-08-26T05:16:29.255Z,9.83
2017-08-26T05:18:57.600Z,9.60
2017-08-26T05:21:25.898Z,12.20
2017-08-26T05:23:54.423Z,11.00
2017-08-26T05:26:22.743Z,9.10
2017-08-26T05:28:51.046Z,12.10
2017-08-26T05:31:19.386Z,9.73
2017-08-26T05:33:47.681Z,9.70
2017-08-26T05:36:15.993Z,10.07
2017-08-26T05:38:44.322Z,9.53
2017-08-26T05:41:12.627Z,12.90
2017-08-26T05:43:40.936Z,11.40
2017-08-26T05:46:09.259Z,14.30
2017-08-26T05:48:38.339Z,17.50
2017-08-26T05:51:06.679Z,15.00
2017-08-26T05:53:35.014Z,18.97
2017-08-26T05:56:03.310Z,23.43
2017-08-26T05:58:31.648Z,13.73
2017-08-26T06:00:59.992Z,17.50
2017-08-26T06:03:28.318Z,20.17
2017-08-26T06:05:56.639Z,14.80
2017-08-26T06:08:24.991Z,14.30
2017-08-26T06:10:53.296Z,10.73
2017-08-26T06:13:21.622Z,14.73
2017-08-26T06:15:49.962Z,11.40
2017-08-26T06:18:18.278Z,11.00
2017-08-26T06:20:46.610Z,9.57
2017-08-26T06:23:14.925Z,12.30
2017-08-26T06:25:43.251Z,9.00
2017-08-26T06:28:11.595Z,10.67
2017-08-26T06:30:39.931Z,10.40
2017-08-26T06:33:08.294Z,13.00
2017-08-26T06:35:36.606Z,10.80
2017-08-26T06:38:04.952Z,16.50
2017-08-26T06:40:33.266Z,14.30
2017-08-26T06:43:01.667Z,10.87
2017-08-26T06:45:30.052Z,13.53
2017-08-26T06:47:58.361Z,11.10
2017-08-26T06:50:26.693Z,10.83
2017-08-26T06:52:55.035Z,14.90
2017-08-26T06:55:23.398Z,11.87
2017-08-26T06:57:51.734Z,10.73
2017-08-26T07:00:20.062Z,9.17
2017-08-26T07:02:48.351Z,8.10
2017-08-26T07:05:16.755Z,10.50
2017-08-26T07:07:45.157Z,10.67
2017-08-26T07:10:13.504Z,11.67
2017-08-26T07:12:41.889Z,8.50
2017-08-26T07:15:10.292Z,8.77
2017-08-26T07:17:38.614Z,8.07
2017-08-26T07:20:07.050Z,11.23
2017-08-26T07:22:35.398Z,9.90
2017-08-26T07:25:03.720Z,9.03
2017-08-26T07:27:32.057Z,7.77
2017-08-26T07:30:00.368Z,9.30
2017-08-26T07:32:28.836Z,11.50
2017-08-26T07:34:57.229Z,8.07
2017-08-26T07:37:25.648Z,8.10
2017-08-26T07:39:54.043Z,8.83
2017-08-26T07:42:22.415Z,11.93
2017-08-26T07:44:50.777Z,23.13
2017-08-26T07:47:19.181Z,12.87
2017-08-26T07:49:47.529Z,16.57
2017-08-26T07:52:15.892Z,11.63
2017-08-26T07:54:44.254Z,10.50
2017-08-26T07:57:12.692Z,10.03
2017-08-26T07:59:41.156Z,10.20
2017-08-26T08:02:09.463Z,8.37
2017-08-26T08:04:37.780Z,9.73
2017-08-26T08:07:06.118Z,12.00
2017-08-26T08:09:34.465Z,10.93
2017-08-26T08:12:02.804Z,14.60
2017-08-26T08:14:31.169Z,20.60
2017-08-26T08:16:59.467Z,13.63
2017-08-26T08:19:27.781Z,16.57
2017-08-26T08:21:56.166Z,15.60
2017-08-26T08:24:24.474Z,13.50
2017-08-26T08:26:52.795Z,17.30
2017-08-26T08:29:21.932Z,14.20
2017-08-26T08:31:50.238Z,16.90
2017-08-26T08:34:18.583Z,18.20
2017-08-26T08:36:46.926Z,19.97
2017-08-26T08:39:15.227Z,21.83
2017-08-26T08:41:43.539Z,17.73
2017-08-26T08:44:11.904Z,17.83
2017-08-26T08:46:40.242Z,18.60
2017-08-26T08:49:08.550Z,16.47
2017-08-26T08:51:36.883Z,18.93
2017-08-26T08:54:05.189Z,21.33
2017-08-26T08:56:33.525Z,19.37
2017-08-26T08:59:01.865Z,19.10
2017-08-26T09:01:30.175Z,16.97
2017-08-26T09:03:58.479Z,18.77
2017-08-26T09:06:26.823Z,14.10
2017-08-26T09:08:55.172Z,19.83
2017-08-26T09:11:23.466Z,17.50
2017-08-26T09:13:51.759Z,15.93
2017-08-26T09:16:20.104Z,15.13
2017-08-26T09:18:48.398Z,18.30
2017-08-26T09:21:16.818Z,17.50
2017-08-26T09:23:45.194Z,18.53
2017-08-26T09:26:13.536Z,21.10
2017-08-26T09:28:42.248Z,19.70
2017-08-26T09:31:10.556Z,15.53
2017-08-26T09:33:38.860Z,16.20
2017-08-26T09:36:07.242Z,18.83
2017-08-26T09:38:35.602Z,22.43
2017-08-26T09:41:03.909Z,16.93
2017-08-26T09:43:32.196Z,18.47
2017-08-26T09:46:00.552Z,21.70
2017-08-26T09:48:28.851Z,19.13
2017-08-26T09:50:57.194Z,21.10
2017-08-26T09:53:25.518Z,20.00
2017-08-26T09:55:53.882Z,20.63
2017-08-26T09:58:22.206Z,19.67
2017-08-26T10:00:50.517Z,22.13
2017-08-26T10:03:18.860Z,18.97
2017-08-26T10:05:47.179Z,17.97
2017-08-26T10:08:15.518Z,20.23
2017-08-26T10:10:43.872Z,19.80
2017-08-26T10:13:12.182Z,16.43
2017-08-26T10:15:40.527Z,18.00
2017-08-26T10:18:08.839Z,21.30
2017-08-26T10:20:37.187Z,19.60
2017-08-26T10:23:05.557Z,19.03
2017-08-26T10:25:33.856Z,21.83
2017-08-26T10:28:02.159Z,19.70
2017-08-26T10:30:30.515Z,21.07
2017-08-26T10:32:58.819Z,25.17
2017-08-26T10:35:27.170Z,19.80
2017-08-26T10:37:56.071Z,19.40
2017-08-26T10:40:27.345Z,23.30
2017-08-26T10:42:56.555Z,23.17
2017-08-26T10:45:24.910Z,16.33
2017-08-26T10:47:53.207Z,19.20
2017-08-26T10:50:21.509Z,22.03
2017-08-26T10:52:49.839Z,21.20
2017-08-26T10:55:18.147Z,20.50
2017-08-26T10:57:46.499Z,21.60
2017-08-26T11:00:14.790Z,28.43
2017-08-26T11:02:43.096Z,21.43
2017-08-26T11:05:11.419Z,24.90
2017-08-26T11:07:39.763Z,21.10
2017-08-26T11:10:08.059Z,21.00
2017-08-26T11:12:36.445Z,18.97
2017-08-26T11:15:04.760Z,26.13
2017-08-26T11:17:33.090Z,22.87
2017-08-26T11:20:01.438Z,19.07
2017-08-26T11:22:30.506Z,18.70
2017-08-26T11:24:58.821Z,14.80
2017-08-26T11:27:27.189Z,33.57
2017-08-26T11:29:55.499Z,21.43
2017-08-26T11:32:23.882Z,26.00
2017-08-26T11:34:52.203Z,18.97
2017-08-26T11:37:20.499Z,16.07
2017-08-26T11:39:48.851Z,15.93
2017-08-26T11:42:17.460Z,19.33
2017-08-26T11:44:45.790Z,22.83
2017-08-26T11:47:14.091Z,20.23
2017-08-26T11:49:43.204Z,24.80
2017-08-26T11:52:12.235Z,19.87
2017-08-26T11:54:40.608Z,18.90
2017-08-26T11:57:08.945Z,21.00
2017-08-26T11:59:37.295Z,16.63
2017-08-26T12:02:05.605Z,20.00
2017-08-26T12:04:33.911Z,21.93
2017-08-26T12:07:02.259Z,23.53
2017-08-26T12:09:30.581Z,19.20
2017-08-26T12:11:58.946Z,20.10
2017-08-26T12:14:27.251Z,20.30
2017-08-26T12:16:55.647Z,19.37
2017-08-26T12:19:23.946Z,23.40
2017-08-26T12:21:52.270Z,23.17
2017-08-26T12:24:20.611Z,22.30
2017-08-26T12:26:48.935Z,20.57
2017-08-26T12:29:17.379Z,17.70
2017-08-26T12:31:45.782Z,17.73
2017-08-26T12:34:14.074Z,21.87
2017-08-26T12:36:42.428Z,18.13
2017-08-26T12:39:10.938Z,24.63
2017-08-26T12:41:39.308Z,18.53
2017-08-26T12:44:07.679Z,15.53
2017-08-26T12:46:36.031Z,18.07
2017-08-26T12:49:04.613Z,15.10
2017-08-26T12:51:33.035Z,17.17
2017-08-26T12:54:01.596Z,16.27
2017-08-26T12:56:30.059Z,16.30
2017-08-26T12:58:58.362Z,23.97
2017-08-26T13:01:26.835Z,17.63
2017-08-26T13:03:55.580Z,17.37
2017-08-26T13:06:23.926Z,18.30
2017-08-26T13:08:52.319Z,16.93
2017-08-26T13:11:20.690Z,16.50
2017-08-26T13:13:49.528Z,18.30
2017-08-26T13:16:17.871Z,17.20
2017-08-26T13:18:46.236Z,18.87
2017-08-26T13:21:14.555Z,17.73
2017-08-26T13:23:42.855Z,15.97
2017-08-26T13:26:11.203Z,18.20
2017-08-26T13:28:39.585Z,15.97
2017-08-26T13:31:07.880Z,18.43
2017-08-26T13:33:37.001Z,23.67
2017-08-26T13:36:06.110Z,20.43
2017-08-26T13:38:34.482Z,16.23
2017-08-26T13:41:02.845Z,16.67
2017-08-26T13:43:31.152Z,18.00
2017-08-26T13:45:59.492Z,16.57
2017-08-26T13:48:27.806Z,17.43
2017-08-26T13:50:56.163Z,15.93
2017-08-26T13:53:24.647Z,19.50
2017-08-26T13:55:53.005Z,19.77
2017-08-26T13:58:21.367Z,20.60
2017-08-26T14:00:49.663Z,20.83
2017-08-26T14:03:17.969Z,23.30
2017-08-26T14:05:46.310Z,21.33
2017-08-26T14:08:14.667Z,20.50
2017-08-26T14:10:42.978Z,19.53
2017-08-26T14:13:11.282Z,19.67
2017-08-26T14:15:39.654Z,22.27
2017-08-26T14:18:07.948Z,18.27
2017-08-26T14:20:36.278Z,22.83
2017-08-26T14:23:04.714Z,16.60
2017-08-26T14:25:33.049Z,18.47
2017-08-26T14:28:01.400Z,16.83
2017-08-26T14:30:29.710Z,19.13
2017-08-26T14:32:58.259Z,20.10
2017-08-26T14:35:26.698Z,20.07
2017-08-26T14:37:55.112Z,26.90
2017-08-26T14:40:23.588Z,19.53
2017-08-26T14:42:51.975Z,30.90
2017-08-26T14:45:20.611Z,24.63
2017-08-26T14:47:49.014Z,21.43
2017-08-26T14:50:17.462Z,17.27
2017-08-26T14:52:45.938Z,22.47
2017-08-26T14:55:14.950Z,21.67
2017-08-26T14:57:43.376Z,25.93
2017-08-26T15:00:11.736Z,20.83
2017-08-26T15:02:40.164Z,15.70
2017-08-26T15:05:08.541Z,16.57
2017-08-26T15:07:36.962Z,13.50
2017-08-26T15:10:05.357Z,18.87
2017-08-26T15:12:33.738Z,15.90
2017-08-26T15:15:02.060Z,20.50
2017-08-26T15:17:30.368Z,15.60
2017-08-26T15:19:58.713Z,15.33
2017-08-26T15:22:27.015Z,28.57
2017-08-26T15:24:55.390Z,17.03
2017-08-26T15:27:23.707Z,14.20
2017-08-26T15:29:52.000Z,15.13
2017-08-26T15:32:20.344Z,13.43
2017-08-26T15:34:48.663Z,13.87
2017-08-26T15:37:16.957Z,17.53
2017-08-26T15:39:45.292Z,15.73
2017-08-26T15:42:13.632Z,16.23
2017-08-26T15:44:42.074Z,16.97
2017-08-26T15:47:10.554Z,13.80
2017-08-26T15:49:38.902Z,12.30
2017-08-26T15:52:07.284Z,13.90
2017-08-26T15:54:35.621Z,10.90
2017-08-26T15:57:04.028Z,10.57
2017-08-26T15:59:32.422Z,11.67
2017-08-26T16:02:00.806Z,10.33
2017-08-26T16:04:29.273Z,11.77
2017-08-26T16:06:57.907Z,15.07
2017-08-26T16:09:26.216Z,14.83
2017-08-26T16:11:54.617Z,13.33
2017-08-26T16:14:23.005Z,14.03
2017-08-26T16:16:51.397Z,12.60
2017-08-26T16:19:19.821Z,15.10
2017-08-26T16:21:48.216Z,14.73
2017-08-26T16:24:16.698Z,13.70
2017-08-26T16:26:45.030Z,14.70
2017-08-26T16:29:13.636Z,13.23
2017-08-26T16:31:42.092Z,15.67
2017-08-26T16:34:10.406Z,16.30
2017-08-26T16:36:38.766Z,12.70
2017-08-26T16:39:07.156Z,12.57
2017-08-26T16:41:35.471Z,13.50
2017-08-26T16:44:03.882Z,17.33
2017-08-26T16:46:32.264Z,13.10
2017-08-26T16:49:00.640Z,11.27
2017-08-26T16:51:28.985Z,12.20
2017-08-26T16:53:57.455Z,12.90
2017-08-26T16:56:25.791Z,12.17
2017-08-26T16:58:54.152Z,14.90
2017-08-26T17:01:22.536Z,17.17
2017-08-26T17:03:50.886Z,16.90
2017-08-26T17:06:19.211Z,21.07
2017-08-26T17:08:47.576Z,21.43
2017-08-26T17:11:16.071Z,22.10
2017-08-26T17:13:44.440Z,21.77
2017-08-26T17:16:12.878Z,18.33
2017-08-26T17:18:41.660Z,17.33
2017-08-26T17:21:10.266Z,19.20
2017-08-26T17:23:38.685Z,16.03
2017-08-26T17:26:07.032Z,20.93
2017-08-26T17:28:35.384Z,16.93
2017-08-26T17:31:03.733Z,14.33
2017-08-26T17:33:32.208Z,12.00
2017-08-26T17:36:00.584Z,12.97
2017-08-26T17:38:28.954Z,15.73
2017-08-26T17:40:57.324Z,17.03
2017-08-26T17:43:25.650Z,16.50
2017-08-26T17:45:53.968Z,13.70
2017-08-26T17:48:22.324Z,13.77
2017-08-26T17:50:50.620Z,12.43
2017-08-26T17:53:18.962Z,14.57
2017-08-26T17:55:47.275Z,17.13
2017-08-26T17:58:15.635Z,18.90
2017-08-26T18:00:43.962Z,18.30
2017-08-26T18:03:12.294Z,26.53
2017-08-26T18:05:40.677Z,21.73
2017-08-26T18:08:09.012Z,19.03
2017-08-26T18:10:37.321Z,18.30
2017-08-26T18:13:05.619Z,15.30
2017-08-26T18:15:33.992Z,20.40
2017-08-26T18:18:02.434Z,17.10
2017-08-26T18:20:30.784Z,19.30
2017-08-26T18:22:59.123Z,16.80
2017-08-26T18:25:27.421Z,15.10
2017-08-26T18:27:55.719Z,16.30
2017-08-26T18:30:24.131Z,15.00
2017-08-26T18:32:52.464Z,14.53
2017-08-26T18:35:20.780Z,15.23
2017-08-26T18:37:49.119Z,16.80
2017-08-26T18:40:17.471Z,16.80
2017-08-26T18:42:45.862Z,12.13
2017-08-26T18:45:14.248Z,14.23
2017-08-26T18:47:42.579Z,14.37
2017-08-26T18:50:10.977Z,14.37
2017-08-26T18:52:39.351Z,16.57
2017-08-26T18:55:07.697Z,21.30
2017-08-26T18:57:36.175Z,28.07
2017-08-26T19:00:04.555Z,34.90
2017-08-26T19:02:32.956Z,35.50
2017-08-26T19:05:01.367Z,42.43
2017-08-26T19:07:29.801Z,46.80
2017-08-26T19:09:58.208Z,45.63
2017-08-26T19:12:26.556Z,64.83
2017-08-26T19:14:54.951Z,58.20
2017-08-26T19:17:23.308Z,56.83
2017-08-26T19:19:51.731Z,62.90
2017-08-26T19:22:20.081Z,48.60
2017-08-26T19:24:48.892Z,54.93
2017-08-26T19:27:17.408Z,52.73
2017-08-26T19:29:45.834Z,53.70
2017-08-26T19:32:14.207Z,53.30
2017-08-26T19:34:42.529Z,57.10
2017-08-26T19:37:11.427Z,56.07
2017-08-26T19:39:39.931Z,53.77
2017-08-26T19:42:08.310Z,57.30
2017-08-26T19:44:36.830Z,61.33
2017-08-26T19:47:05.180Z,65.57
2017-08-26T19:49:33.543Z,57.17
2017-08-26T19:52:01.866Z,53.40
2017-08-26T19:54:30.215Z,58.83
2017-08-26T19:56:58.574Z,56.03
2017-08-26T19:59:26.916Z,70.40
2017-08-26T20:01:55.231Z,63.73
2017-08-26T20:04:23.562Z,74.17
2017-08-26T20:06:51.924Z,65.43
2017-08-26T20:09:20.271Z,89.57
2017-08-26T20:11:48.679Z,85.00
2017-08-26T20:14:16.988Z,70.73
2017-08-26T20:16:45.496Z,91.37
2017-08-26T20:19:13.799Z,79.10
2017-08-26T20:21:42.100Z,82.30
2017-08-26T20:24:10.529Z,85.07
2017-08-26T20:26:38.820Z,83.50
2017-08-26T20:29:07.151Z,83.57
2017-08-26T20:31:35.454Z,80.83
2017-08-26T20:34:03.807Z,71.30
2017-08-26T20:36:32.120Z,74.43
2017-08-26T20:39:00.450Z,56.83
2017-08-26T20:41:28.827Z,77.30
2017-08-26T20:43:57.306Z,69.13
2017-08-26T20:46:25.625Z,55.23
2017-08-26T20:48:53.935Z,62.03
2017-08-26T20:51:22.285Z,64.33
2017-08-26T20:53:50.639Z,55.23
2017-08-26T20:56:19.025Z,49.67
2017-08-26T20:58:47.355Z,51.63
2017-08-26T21:01:15.738Z,45.37
2017-08-26T21:03:44.053Z,44.67
2017-08-26T21:06:12.386Z,51.37
2017-08-26T21:08:40.731Z,52.20
2017-08-26T21:11:09.096Z,55.10
2017-08-26T21:13:37.435Z,57.40
2017-08-26T21:16:05.739Z,49.57
2017-08-26T21:18:34.084Z,66.97
2017-08-26T21:21:02.408Z,50.57
2017-08-26T21:23:30.748Z,50.33
2017-08-26T21:25:59.088Z,59.70
2017-08-26T21:28:27.440Z,65.53
2017-08-26T21:30:55.826Z,70.67
2017-08-26T21:33:24.155Z,86.47
2017-08-26T21:35:52.490Z,79.33
2017-08-26T21:38:20.787Z,68.03
2017-08-26T21:40:49.162Z,73.10
2017-08-26T21:43:17.478Z,105.03
2017-08-26T21:45:45.967Z,81.37
2017-08-26T21:48:14.534Z,88.13
2017-08-26T21:50:42.837Z,86.67
2017-08-26T21:53:11.958Z,74.67
2017-08-26T21:55:40.280Z,101.73
2017-08-26T21:58:08.623Z,97.77
2017-08-26T22:00:36.915Z,84.37
2017-08-26T22:03:05.262Z,107.30
2017-08-26T22:05:33.612Z,124.73
2017-08-26T22:08:01.948Z,130.43
2017-08-26T22:10:30.266Z,122.47
2017-08-26T22:12:58.710Z,124.23
2017-08-26T22:15:27.044Z,81.30
2017-08-26T22:17:55.398Z,114.60
2017-08-26T22:20:23.776Z,115.07
2017-08-26T22:22:52.113Z,108.33
2017-08-26T22:25:20.446Z,99.77
2017-08-26T22:27:48.785Z,109.23
2017-08-26T22:30:17.140Z,113.93
2017-08-26T22:32:45.464Z,111.87
2017-08-26T22:35:14.101Z,112.07
2017-08-26T22:37:42.428Z,115.63
2017-08-26T22:40:10.719Z,118.47
2017-08-26T22:42:39.035Z,117.60
2017-08-26T22:45:07.342Z,107.67
2017-08-26T22:47:35.692Z,109.37
2017-08-26T22:50:04.004Z,103.97
2017-08-26T22:52:32.344Z,115.50
2017-08-26T22:55:00.655Z,111.73
2017-08-26T22:57:28.999Z,112.27
2017-08-26T22:59:57.306Z,119.33
2017-08-26T23:02:25.652Z,106.60
2017-08-26T23:04:53.961Z,108.70
2017-08-26T23:07:22.406Z,109.07
2017-08-26T23:09:50.708Z,104.40
2017-08-26T23:12:19.008Z,109.03
2017-08-26T23:14:47.375Z,108.70
2017-08-26T23:17:15.710Z,116.53
2017-08-26T23:19:44.082Z,107.33
2017-08-26T23:22:12.394Z,103.70
2017-08-26T23:24:40.740Z,101.43
2017-08-26T23:27:09.073Z,100.43
2017-08-26T23:29:37.413Z,98.97
2017-08-26T23:32:05.723Z,97.87
2017-08-26T23:34:34.206Z,101.27
2017-08-26T23:37:02.499Z,94.50
2017-08-26T23:39:30.801Z,98.63
2017-08-26T23:41:59.560Z,97.63
2017-08-26T23:44:27.871Z,101.57
2017-08-26T23:46:56.244Z,103.53
2017-08-26T23:49:24.560Z,101.20
2017-08-26T23:51:52.899Z,113.43
2017-08-26T23:54:21.209Z,102.40
2017-08-26T23:56:49.647Z,103.60
2017-08-26T23:59:17.971Z,112.30
